Time;durP1;ratioP1;P1;durP2;ratioP2;P2;SDS_P1;SDS_P2;PMS_P1;PMS_P2;Temp;Humidity;BMP_temperature;BMP_pressure;BME280_temperature;BME280_humidity;BME280_pressure;Samples;Min_cycle;Max_cycle;Signal;HPM_P1;HPM_P2
2022/03/06 00:02:11;;;;;;;25.33;16.95;;;;;;;3.39;45.35;98631.44;4915261;29;20087;-48
2022/03/06 00:04:37;;;;;;;26.05;17.88;;;;;;;3.32;45.56;98627.84;4915274;29;20516;-48
2022/03/06 00:07:03;;;;;;;34.80;20.67;;;;;;;3.42;45.63;98638.13;4915164;29;20475;-48
2022/03/06 00:09:28;;;;;;;26.35;16.55;;;;;;;3.50;45.73;98637.31;4915017;29;20020;-49
2022/03/06 00:11:54;;;;;;;29.67;17.92;;;;;;;3.44;45.57;98631.00;4916122;29;20473;-48
2022/03/06 00:14:20;;;;;;;29.02;15.82;;;;;;;3.49;45.77;98644.28;4916354;29;20103;-49
2022/03/06 00:16:46;;;;;;;25.70;14.73;;;;;;;3.39;46.41;98641.00;4916263;29;20459;-48
2022/03/06 00:19:13;;;;;;;25.40;15.15;;;;;;;3.39;46.21;98641.00;4914942;29;20029;-48
2022/03/06 00:21:40;;;;;;;23.20;15.10;;;;;;;3.33;46.61;98646.81;4914826;29;20028;-48
2022/03/06 00:24:06;;;;;;;27.27;16.88;;;;;;;3.22;47.45;98641.88;4916127;29;20691;-49
2022/03/06 00:26:33;;;;;;;25.95;17.85;;;;;;;3.09;47.34;98644.91;4916115;29;20092;-49
2022/03/06 00:28:59;;;;;;;27.05;16.90;;;;;;;3.19;47.38;98651.59;4916051;29;20454;-48
2022/03/06 00:31:25;;;;;;;31.05;19.35;;;;;;;3.35;46.74;98645.69;4914608;29;20537;-48
2022/03/06 00:33:54;;;;;;;27.55;17.00;;;;;;;3.40;46.35;98650.41;4914694;29;20048;-48
2022/03/06 00:36:21;;;;;;;28.88;17.60;;;;;;;3.23;46.48;98646.13;4914625;29;20510;-49
2022/03/06 00:38:47;;;;;;;32.88;18.58;;;;;;;3.04;47.10;98647.97;4914678;29;20028;-49
2022/03/06 00:41:15;;;;;;;29.92;18.17;;;;;;;2.85;47.54;98648.97;4930401;29;20589;-48
2022/03/06 00:43:41;;;;;;;28.65;16.90;;;;;;;2.92;47.38;98650.00;4913746;29;20034;-47
2022/03/06 00:46:07;;;;;;;23.33;16.33;;;;;;;3.07;47.42;98649.44;4914542;29;20024;-49
2022/03/06 00:48:33;;;;;;;26.17;16.60;;;;;;;3.20;46.84;98657.63;4915790;29;20398;-48
2022/03/06 00:50:59;;;;;;;29.50;17.08;;;;;;;3.22;47.05;98649.66;4914350;29;20111;-49
2022/03/06 00:53:25;;;;;;;29.65;17.88;;;;;;;3.18;47.31;98657.75;4915750;29;20084;-48
2022/03/06 00:55:51;;;;;;;26.35;16.73;;;;;;;3.00;47.40;98657.00;4915665;29;20028;-49
2022/03/06 00:58:17;;;;;;;25.63;15.95;;;;;;;2.77;48.08;98649.72;4915653;29;20044;-48
2022/03/06 01:00:46;;;;;;;21.95;15.30;;;;;;;2.70;48.12;98651.28;4914351;29;20051;-48
2022/03/06 01:03:16;;;;;;;23.73;14.90;;;;;;;2.58;48.75;98655.91;4915665;29;20076;-49
2022/03/06 01:05:42;;;;;;;33.95;17.00;;;;;;;2.58;48.40;98655.91;4914335;29;20032;-48
2022/03/06 01:08:09;;;;;;;21.70;14.15;;;;;;;2.58;48.70;98662.88;4914329;29;20031;-49
2022/03/06 01:10:37;;;;;;;29.65;16.60;;;;;;;2.55;48.66;98653.59;4913959;29;20088;-49
2022/03/06 01:13:03;;;;;;;26.08;16.00;;;;;;;2.64;48.80;98659.69;4914293;29;20040;-48
2022/03/06 01:15:30;;;;;;;28.33;16.02;;;;;;;2.66;48.70;98655.16;4914293;29;20405;-48
2022/03/06 01:17:56;;;;;;;25.50;15.73;;;;;;;2.63;48.42;98667.59;4914260;29;20036;-49
2022/03/06 01:20:23;;;;;;;35.97;25.08;;;;;;;2.51;48.51;98662.63;4915445;29;20031;-48
2022/03/06 01:22:50;;;;;;;29.98;19.17;;;;;;;2.47;48.66;98663.88;4914166;29;20131;-48
2022/03/06 01:25:16;;;;;;;34.25;20.42;;;;;;;2.48;49.12;98655.16;4914118;29;20024;-48
2022/03/06 01:27:42;;;;;;;29.13;18.05;;;;;;;2.63;49.46;98659.81;4915434;29;20031;-48
2022/03/06 01:30:11;;;;;;;25.55;15.25;;;;;;;2.80;48.47;98661.56;4915279;29;20032;-48
2022/03/06 01:32:38;;;;;;;29.08;17.45;;;;;;;2.72;48.47;98651.97;4915389;29;20035;-48
2022/03/06 01:35:05;;;;;;;24.13;15.68;;;;;;;2.78;48.27;98658.31;4914067;29;20031;-49
2022/03/06 01:37:31;;;;;;;30.20;16.13;;;;;;;2.78;48.09;98661.72;4914075;29;20047;-48
2022/03/06 01:39:57;;;;;;;25.40;15.90;;;;;;;2.74;48.81;98657.00;4913983;29;20454;-48
2022/03/06 01:42:22;;;;;;;29.33;15.48;;;;;;;2.72;49.03;98656.34;4915288;29;20039;-49
2022/03/06 01:44:50;;;;;;;25.77;16.80;;;;;;;2.67;48.73;98653.38;4914002;29;20034;-48
2022/03/06 01:47:55;;;;;;;25.95;16.92;;;;;;;2.51;49.10;98657.44;4915207;29;20031;-48
2022/03/06 01:50:34;;;;;;;28.65;16.60;;;;;;;2.43;49.17;98654.78;4875374;29;20036;-48
2022/03/06 01:53:03;;;;;;;28.17;19.70;;;;;;;2.41;48.71;98651.53;4859980;29;20672;-48
2022/03/06 01:55:30;;;;;;;25.70;20.02;;;;;;;2.44;48.75;98656.44;4876685;29;20037;-48
2022/03/06 01:57:58;;;;;;;30.38;19.40;;;;;;;2.36;49.29;98661.53;4878976;29;20434;-48
2022/03/06 02:00:30;;;;;;;23.70;14.25;;;;;;;2.33;49.73;98661.81;4878906;29;20033;-48
2022/03/06 02:02:56;;;;;;;25.50;15.55;;;;;;;2.35;49.65;98662.50;4863351;29;20132;-49
2022/03/06 02:05:22;;;;;;;26.65;17.98;;;;;;;2.32;49.59;98660.22;4878797;29;20025;-49
2022/03/06 02:07:48;;;;;;;29.50;18.83;;;;;;;2.17;49.77;98671.09;4863217;29;20068;-48
2022/03/06 02:10:16;;;;;;;32.00;19.17;;;;;;;2.29;49.87;98665.66;4878728;29;20045;-49
2022/03/06 02:12:43;;;;;;;29.67;19.02;;;;;;;2.39;49.59;98663.81;4878474;29;20593;-48
2022/03/06 02:15:11;;;;;;;25.77;16.70;;;;;;;2.53;48.94;98665.06;4878650;29;20037;-48
2022/03/06 02:17:38;;;;;;;25.90;18.13;;;;;;;2.58;49.00;98666.25;4878652;29;20053;-49
2022/03/06 02:20:07;;;;;;;26.15;17.30;;;;;;;2.65;49.12;98663.88;4866182;29;20028;-49
2022/03/06 02:22:36;;;;;;;30.42;18.80;;;;;;;2.86;48.37;98662.72;4916997;29;20581;-49
2022/03/06 02:25:06;;;;;;;29.23;19.55;;;;;;;2.87;48.40;98659.19;4916943;29;20035;-48
2022/03/06 02:27:32;;;;;;;26.50;17.98;;;;;;;2.79;48.29;98668.50;4916946;29;20051;-48
2022/03/06 02:29:57;;;;;;;29.55;17.40;;;;;;;2.57;48.43;98659.44;4918089;29;20491;-48
2022/03/06 02:32:23;;;;;;;28.35;19.25;;;;;;;2.51;48.88;98656.63;4918100;29;20028;-48
2022/03/06 02:34:51;;;;;;;30.23;19.35;;;;;;;2.46;49.21;98659.69;4916795;29;20028;-49
2022/03/06 02:37:20;;;;;;;30.55;18.90;;;;;;;2.41;48.80;98656.72;4918030;29;20103;-48
2022/03/06 02:39:46;;;;;;;31.50;19.20;;;;;;;2.32;49.53;98662.81;4916757;29;20387;-48
2022/03/06 02:42:27;;;;;;;31.33;17.33;;;;;;;2.43;49.31;98659.97;4917903;29;20025;-48
2022/03/06 02:44:55;;;;;;;26.05;16.75;;;;;;;2.44;48.57;98661.63;4916665;29;20486;-48
2022/03/06 02:47:21;;;;;;;36.20;19.35;;;;;;;2.39;48.99;98651.72;4916561;29;20028;-48
2022/03/06 02:49:47;;;;;;;29.77;15.82;;;;;;;2.27;49.30;98658.03;4917774;29;20099;-48
2022/03/06 02:52:13;;;;;;;30.88;17.10;;;;;;;2.09;49.22;98659.81;4916467;29;20031;-49
2022/03/06 02:54:39;;;;;;;26.05;15.82;;;;;;;1.98;49.79;98666.84;4916489;29;20024;-48
2022/03/06 02:57:06;;;;;;;28.48;18.08;;;;;;;1.98;49.91;98663.44;4916389;29;20028;-48
2022/03/06 02:59:32;;;;;;;35.75;20.55;;;;;;;2.00;49.56;98661.50;4916310;29;20032;-49
2022/03/06 03:01:58;;;;;;;32.58;22.88;;;;;;;1.94;49.16;98665.50;4917675;29;20051;-49
2022/03/06 03:04:23;;;;;;;24.38;17.45;;;;;;;1.75;49.27;98658.66;4917554;29;20033;-49
2022/03/06 03:06:50;;;;;;;29.98;18.52;;;;;;;1.69;49.34;98655.81;4916648;29;20460;-49
2022/03/06 03:09:20;;;;;;;25.83;16.50;;;;;;;1.74;49.52;98662.19;4917549;29;20502;-48
2022/03/06 03:11:47;;;;;;;32.35;16.23;;;;;;;1.72;49.60;98660.72;4915866;29;20063;-48
2022/03/06 03:14:13;;;;;;;26.08;16.65;;;;;;;1.72;50.02;98663.31;4917367;29;20020;-48
2022/03/06 03:16:40;;;;;;;24.33;15.65;;;;;;;1.76;49.50;98659.47;4917343;29;20024;-47
2022/03/06 03:19:06;;;;;;;26.52;15.07;;;;;;;1.88;49.85;98654.91;4917381;29;20024;-48
2022/03/06 03:21:32;;;;;;;22.85;15.20;;;;;;;2.06;49.10;98657.53;4917259;29;20533;-48
2022/03/06 03:23:58;;;;;;;27.27;16.15;;;;;;;2.28;48.94;98658.88;4917236;29;20028;-48
2022/03/06 03:26:25;;;;;;;25.95;16.98;;;;;;;2.27;48.29;98659.81;4917173;29;20115;-48
2022/03/06 03:28:51;;;;;;;28.35;17.52;;;;;;;2.21;49.15;98666.41;4917149;29;20394;-48
2022/03/06 03:31:17;;;;;;;27.60;15.73;;;;;;;2.16;48.22;98669.44;4916928;29;20607;-48
2022/03/06 03:33:43;;;;;;;27.85;16.25;;;;;;;2.36;48.55;98666.72;4917095;29;20032;-48
2022/03/06 03:36:09;;;;;;;27.75;16.15;;;;;;;2.72;47.83;98674.47;4917007;29;20439;-48
2022/03/06 03:38:34;;;;;;;26.42;15.70;;;;;;;2.81;47.14;98670.97;4916914;29;20020;-48
2022/03/06 03:41:01;;;;;;;27.10;17.48;;;;;;;2.91;47.26;98683.84;4915610;29;20035;-48
2022/03/06 03:43:27;;;;;;;26.15;17.08;;;;;;;2.74;47.01;98680.31;4916873;29;20048;-48
2022/03/06 03:45:53;;;;;;;23.70;16.33;;;;;;;2.63;47.38;98677.94;4915486;29;20035;-48
2022/03/06 03:48:19;;;;;;;23.67;16.30;;;;;;;2.54;47.95;98680.47;4916776;29;20372;-48
2022/03/06 03:50:45;;;;;;;26.95;17.52;;;;;;;2.30;48.12;98675.88;4916675;29;20030;-49
2022/03/06 03:53:11;;;;;;;28.77;17.23;;;;;;;2.29;48.41;98683.81;4915354;29;20028;-48
2022/03/06 03:55:37;;;;;;;24.75;16.17;;;;;;;2.45;48.40;98688.31;4916640;29;20036;-48
2022/03/06 03:58:02;;;;;;;28.55;16.20;;;;;;;2.48;47.77;98688.84;4916629;29;20082;-47
2022/03/06 04:00:28;;;;;;;28.98;15.80;;;;;;;2.60;48.03;98697.22;4916498;29;20039;-48
2022/03/06 04:02:54;;;;;;;27.52;17.42;;;;;;;2.89;48.02;98689.16;4915214;29;20067;-49
2022/03/06 04:05:20;;;;;;;26.88;15.68;;;;;;;3.19;46.95;98694.88;4916470;29;20020;-48
2022/03/06 04:07:46;;;;;;;23.67;16.10;;;;;;;3.41;46.41;98696.13;4916416;29;20519;-49
2022/03/06 04:10:11;;;;;;;23.90;16.40;;;;;;;3.55;45.85;98695.56;4914992;29;20035;-49
2022/03/06 04:12:37;;;;;;;24.67;15.52;;;;;;;3.68;46.01;98699.50;4916150;29;20044;-48
2022/03/06 04:15:03;;;;;;;27.20;15.38;;;;;;;3.89;45.67;98699.13;4916236;29;20103;-48
2022/03/06 04:17:29;;;;;;;31.98;20.77;;;;;;;4.04;45.26;98697.53;4916264;29;20032;-49
2022/03/06 04:19:55;;;;;;;31.27;17.08;;;;;;;4.14;44.56;98693.00;4914861;29;20035;-48
2022/03/06 04:22:20;;;;;;;25.77;16.25;;;;;;;4.22;44.48;98694.00;4914882;29;20395;-48
2022/03/06 04:24:46;;;;;;;24.52;16.52;;;;;;;4.23;44.51;98698.25;4916193;29;20047;-49
2022/03/06 04:27:12;;;;;;;27.02;16.58;;;;;;;3.99;44.02;98705.00;4916084;29;20116;-49
2022/03/06 04:29:37;;;;;;;25.88;16.58;;;;;;;3.77;44.52;98696.78;4914726;29;20028;-48
2022/03/06 04:32:03;;;;;;;25.13;17.38;;;;;;;3.57;44.44;98703.19;4914714;29;20038;-48
2022/03/06 04:34:29;;;;;;;25.55;17.05;;;;;;;3.50;44.97;98700.41;4916000;29;20021;-49
2022/03/06 04:36:55;;;;;;;24.63;17.13;;;;;;;3.41;45.27;98706.50;4915990;29;20035;-49
2022/03/06 04:39:20;;;;;;;27.70;16.38;;;;;;;3.10;45.63;98700.97;4915945;29;20076;-49
2022/03/06 04:41:46;;;;;;;24.27;16.95;;;;;;;2.87;46.12;98703.25;4914640;29;20047;-48
2022/03/06 04:44:13;;;;;;;27.20;16.50;;;;;;;2.82;46.57;98705.47;4914616;29;20502;-48
2022/03/06 04:46:39;;;;;;;25.83;17.20;;;;;;;2.60;46.41;98705.78;4914556;29;20034;-48
2022/03/06 04:49:04;;;;;;;28.05;16.88;;;;;;;2.30;46.61;98706.16;4915776;29;20028;-49
2022/03/06 04:51:30;;;;;;;26.15;17.15;;;;;;;2.03;47.61;98700.03;4914414;29;20052;-48
2022/03/06 04:53:56;;;;;;;25.25;16.20;;;;;;;1.98;48.15;98702.25;4914533;29;20032;-49
2022/03/06 04:56:23;;;;;;;25.63;16.23;;;;;;;1.94;48.04;98700.91;4915767;29;20027;-48
2022/03/06 04:58:49;;;;;;;27.00;17.05;;;;;;;2.06;48.44;98702.34;4914476;29;20055;-49
2022/03/06 05:01:15;;;;;;;29.25;17.38;;;;;;;1.97;48.29;98696.28;4914418;29;20078;-48
2022/03/06 05:03:40;;;;;;;25.45;17.67;;;;;;;1.88;48.83;98701.50;4915689;29;20024;-49
2022/03/06 05:06:06;;;;;;;25.02;16.48;;;;;;;1.70;49.45;98693.69;4915633;29;20038;-48
2022/03/06 05:08:31;;;;;;;23.40;15.45;;;;;;;1.67;49.72;98697.38;4914406;29;20402;-49
2022/03/06 05:10:57;;;;;;;34.63;18.05;;;;;;;1.53;50.18;98693.50;4914016;29;20056;-48
2022/03/06 05:13:24;;;;;;;24.45;14.48;;;;;;;1.46;50.07;98702.75;4915617;29;20032;-48
2022/03/06 05:15:50;;;;;;;25.85;15.70;;;;;;;1.42;49.71;98692.84;4915556;29;20086;-49
2022/03/06 05:18:16;;;;;;;27.83;16.02;;;;;;;1.31;50.93;98696.41;4915500;29;20052;-49
2022/03/06 05:20:42;;;;;;;25.15;17.85;;;;;;;1.17;50.74;98693.34;4914206;29;20029;-48
2022/03/06 05:23:08;;;;;;;24.45;16.70;;;;;;;1.03;50.93;98698.94;4916072;29;20040;-48
2022/03/06 05:25:33;;;;;;;31.85;17.83;;;;;;;0.93;51.38;98695.56;4915479;29;20099;-48
2022/03/06 05:27:59;;;;;;;27.45;17.73;;;;;;;0.90;52.19;98699.22;4915473;29;20067;-49
2022/03/06 05:30:25;;;;;;;27.15;17.55;;;;;;;0.83;51.61;98703.31;4916643;29;20052;-48
2022/03/06 05:32:51;;;;;;;26.40;17.92;;;;;;;0.84;52.32;98706.72;4917927;29;20028;-48
2022/03/06 05:35:16;;;;;;;25.58;17.35;;;;;;;0.79;52.08;98709.72;4919176;29;20024;-48
2022/03/06 05:37:42;;;;;;;27.00;18.25;;;;;;;0.80;52.87;98706.16;4919154;29;20586;-48
2022/03/06 05:40:09;;;;;;;27.30;18.73;;;;;;;0.98;52.51;98714.84;4919262;29;20160;-48
2022/03/06 05:42:35;;;;;;;30.83;19.45;;;;;;;0.93;52.49;98711.88;4919073;29;20035;-48
2022/03/06 05:45:01;;;;;;;27.88;18.55;;;;;;;0.87;53.39;98716.78;4918963;29;20028;-48
2022/03/06 05:47:27;;;;;;;27.55;17.65;;;;;;;0.79;53.18;98710.53;4917661;29;20063;-49
2022/03/06 05:49:52;;;;;;;27.50;16.55;;;;;;;0.80;52.97;98716.50;4917569;29;20024;-48
2022/03/06 05:52:18;;;;;;;22.52;15.80;;;;;;;0.82;52.47;98709.44;4917530;29;20401;-48
2022/03/06 05:54:44;;;;;;;26.33;17.08;;;;;;;0.81;52.05;98714.75;4918830;29;20111;-47
2022/03/06 05:57:10;;;;;;;25.50;18.00;;;;;;;0.68;52.60;98715.00;4918781;29;20031;-48
2022/03/06 05:59:35;;;;;;;25.42;16.52;;;;;;;0.57;52.45;98715.97;4917491;29;20024;-48
2022/03/06 06:02:01;;;;;;;22.27;15.85;;;;;;;0.55;52.35;98718.69;4917387;29;20529;-48
2022/03/06 06:04:27;;;;;;;26.88;16.45;;;;;;;0.68;52.77;98718.41;4917404;29;20036;-48
2022/03/06 06:06:53;;;;;;;24.42;15.23;;;;;;;0.86;52.76;98715.94;4918601;29;20032;-48
2022/03/06 06:09:18;;;;;;;26.98;15.88;;;;;;;0.94;52.65;98717.84;4917294;29;20032;-48
2022/03/06 06:11:44;;;;;;;30.02;16.58;;;;;;;0.87;52.98;98721.94;4916789;29;20822;-48
2022/03/06 06:14:10;;;;;;;26.75;16.10;;;;;;;0.91;53.02;98721.53;4932993;29;20071;-49
2022/03/06 06:16:36;;;;;;;26.58;16.83;;;;;;;0.97;53.25;98728.72;4918441;29;20064;-48
2022/03/06 06:19:02;;;;;;;28.38;17.65;;;;;;;1.03;52.75;98719.63;4918367;29;20035;-48
2022/03/06 06:21:28;;;;;;;47.53;32.05;;;;;;;1.02;52.57;98722.31;4918328;29;20032;-48
2022/03/06 06:23:54;;;;;;;24.00;16.77;;;;;;;1.22;52.09;98736.84;4918349;29;20107;-49
2022/03/06 06:26:20;;;;;;;28.60;16.60;;;;;;;1.59;52.20;98739.47;4916916;29;20124;-48
2022/03/06 06:28:48;;;;;;;29.92;19.48;;;;;;;1.89;50.72;98741.94;4916931;29;20031;-47
2022/03/06 06:31:14;;;;;;;34.67;20.73;;;;;;;2.20;50.88;98752.81;4918080;29;20031;-48
2022/03/06 06:33:39;;;;;;;28.50;17.73;;;;;;;2.86;49.60;98743.06;4918401;29;20032;-48
2022/03/06 06:36:06;;;;;;;25.73;17.00;;;;;;;3.34;48.41;98744.41;4918041;29;20075;-49
2022/03/06 06:38:31;;;;;;;24.02;15.82;;;;;;;3.84;47.42;98733.31;4918343;29;20508;-49
2022/03/06 06:40:57;;;;;;;22.35;15.57;;;;;;;4.28;46.08;98740.13;4916262;29;20134;-49
2022/03/06 06:43:23;;;;;;;27.58;17.20;;;;;;;4.68;45.51;98721.19;4915835;29;20446;-48
2022/03/06 06:45:49;;;;;;;23.38;16.83;;;;;;;4.90;44.24;98726.72;4917941;29;20036;-49
2022/03/06 06:48:15;;;;;;;23.77;16.25;;;;;;;4.67;44.35;98724.78;4917898;29;20066;-48
2022/03/06 06:50:41;;;;;;;29.45;16.33;;;;;;;4.53;44.75;98725.41;4917768;29;20032;-48
2022/03/06 06:53:06;;;;;;;26.05;15.10;;;;;;;4.63;44.79;98727.84;4916493;29;20369;-48
2022/03/06 06:55:34;;;;;;;23.30;13.68;;;;;;;4.82;44.56;98732.72;4916501;29;20064;-49
2022/03/06 06:58:03;;;;;;;23.58;15.32;;;;;;;4.94;44.30;98726.22;4917708;29;20028;-48
2022/03/06 07:00:28;;;;;;;21.17;13.95;;;;;;;5.08;43.80;98731.75;4917610;29;20450;-48
2022/03/06 07:02:54;;;;;;;20.98;14.93;;;;;;;5.21;43.41;98737.25;4917627;29;20107;-48
2022/03/06 07:05:20;;;;;;;19.98;13.50;;;;;;;5.25;43.20;98729.94;4916320;29;20111;-48
2022/03/06 07:07:46;;;;;;;24.70;16.02;;;;;;;5.24;43.37;98728.34;4917572;29;20024;-49
2022/03/06 07:10:11;;;;;;;20.42;14.57;;;;;;;5.39;43.03;98729.28;4917450;29;20024;-49
2022/03/06 07:12:55;;;;;;;22.95;14.82;;;;;;;5.66;42.53;98720.25;4915998;29;20048;-47
2022/03/06 07:15:28;;;;;;;21.27;14.75;;;;;;;5.91;41.57;98727.97;4917452;29;20087;-50
2022/03/06 07:18:00;;;;;;;22.48;16.30;;;;;;;6.67;41.13;98731.66;4917405;29;20035;-49
2022/03/06 07:20:27;;;;;;;21.48;13.35;;;;;;;7.71;40.05;98729.25;4916047;29;20503;-49
2022/03/06 07:22:53;;;;;;;21.58;13.80;;;;;;;8.74;38.29;98726.63;4915940;29;20484;-49
2022/03/06 07:25:20;;;;;;;17.38;12.50;;;;;;;9.75;36.49;98721.09;4917215;29;20512;-48
2022/03/06 07:27:45;;;;;;;17.65;12.38;;;;;;;10.70;35.28;98721.22;4917236;29;20055;-48
2022/03/06 07:30:12;;;;;;;22.98;13.52;;;;;;;11.57;33.99;98720.19;4915744;29;20059;-49
2022/03/06 07:32:46;;;;;;;15.30;12.00;;;;;;;12.01;32.41;98720.47;4915777;29;20090;-49
2022/03/06 07:35:13;;;;;;;18.95;12.85;;;;;;;12.15;31.72;98716.78;4915787;29;20054;-49
2022/03/06 07:37:39;;;;;;;20.38;13.57;;;;;;;12.30;31.22;98720.97;4917001;29;20056;-49
2022/03/06 07:40:07;;;;;;;24.92;13.88;;;;;;;12.49;30.75;98727.13;4915611;29;20028;-49
2022/03/06 07:42:33;;;;;;;24.13;14.98;;;;;;;12.68;30.18;98731.47;4916947;29;20116;-49
2022/03/06 07:44:59;;;;;;;20.40;13.98;;;;;;;12.89;30.37;98724.22;4916858;29;20095;-48
2022/03/06 07:47:25;;;;;;;21.10;13.90;;;;;;;12.77;29.19;98732.81;4916809;29;20574;-49
2022/03/06 07:49:51;;;;;;;16.67;13.45;;;;;;;12.32;29.71;98730.25;4916699;29;20016;-49
2022/03/06 07:52:16;;;;;;;16.40;13.23;;;;;;;11.99;30.08;98727.75;4916705;29;20111;-49
2022/03/06 07:54:42;;;;;;;20.55;13.23;;;;;;;12.07;30.02;98732.78;4916368;29;20025;-49
2022/03/06 07:57:08;;;;;;;16.95;13.93;;;;;;;12.72;29.61;98732.66;4916630;29;20406;-49
2022/03/06 07:59:34;;;;;;;18.20;14.13;;;;;;;12.09;29.50;98736.03;4916660;29;20558;-49
2022/03/06 08:02:00;;;;;;;17.52;13.23;;;;;;;11.48;30.45;98742.44;4916505;29;20036;-49
2022/03/06 08:04:27;;;;;;;19.23;12.95;;;;;;;11.12;31.06;98742.88;4916539;29;20561;-49
2022/03/06 08:06:53;;;;;;;17.50;13.32;;;;;;;10.44;31.21;98746.41;4915180;29;20039;-49
2022/03/06 08:09:19;;;;;;;23.17;12.88;;;;;;;9.86;32.07;98751.19;4915089;29;20533;-49
2022/03/06 08:11:45;;;;;;;16.02;12.40;;;;;;;9.70;31.95;98754.91;4916046;29;20388;-49
2022/03/06 08:14:11;;;;;;;22.67;14.40;;;;;;;9.02;32.97;98757.28;4915067;29;20032;-49
2022/03/06 08:16:38;;;;;;;22.90;19.52;;;;;;;9.35;33.11;98760.13;4916831;29;20028;-50
2022/03/06 08:19:05;;;;;;;22.10;17.42;;;;;;;9.13;33.44;98767.22;4916231;29;20028;-49
2022/03/06 08:21:30;;;;;;;18.38;13.30;;;;;;;9.03;33.65;98771.97;4914946;29;20520;-48
2022/03/06 08:23:56;;;;;;;20.42;13.05;;;;;;;9.63;33.06;98770.59;4914888;29;20115;-49
2022/03/06 08:26:25;;;;;;;16.55;11.60;;;;;;;10.14;32.58;98769.47;4916126;29;20024;-48
2022/03/06 08:28:52;;;;;;;19.65;12.85;;;;;;;11.12;31.26;98766.50;4916086;29;20032;-49
2022/03/06 08:31:18;;;;;;;19.20;11.27;;;;;;;11.54;30.24;98767.09;4916029;29;20035;-49
2022/03/06 08:33:46;;;;;;;19.95;12.07;;;;;;;11.64;29.84;98764.84;4914796;29;20506;-48
2022/03/06 08:36:12;;;;;;;16.33;12.70;;;;;;;12.02;29.54;98760.75;4914739;29;20032;-50
2022/03/06 08:38:38;;;;;;;16.45;12.13;;;;;;;12.06;28.91;98756.69;4916011;29;20035;-49
2022/03/06 08:41:04;;;;;;;18.65;11.68;;;;;;;11.99;29.22;98760.16;4914654;29;20401;-50
2022/03/06 08:43:30;;;;;;;19.55;12.60;;;;;;;11.72;29.51;98761.19;4915928;29;20111;-48
2022/03/06 08:45:56;;;;;;;20.27;12.27;;;;;;;12.09;29.07;98756.25;4915866;29;20398;-48
2022/03/06 08:48:21;;;;;;;16.92;10.95;;;;;;;12.52;28.63;98755.69;4914599;29;20521;-49
2022/03/06 08:50:50;;;;;;;28.20;25.23;;;;;;;13.37;27.85;98757.94;4915679;29;20028;-49
2022/03/06 08:53:17;;;;;;;21.98;15.93;;;;;;;13.84;27.63;98758.25;4914498;29;20028;-49
2022/03/06 08:55:43;;;;;;;22.42;17.08;;;;;;;14.23;26.28;98758.06;4915756;29;20029;-49
2022/03/06 08:58:09;;;;;;;19.67;13.70;;;;;;;14.95;25.74;98753.63;4914482;29;20088;-50
2022/03/06 09:00:34;;;;;;;18.35;12.68;;;;;;;15.30;24.93;98752.06;4915668;29;20028;-50
2022/03/06 09:03:00;;;;;;;18.30;12.77;;;;;;;15.67;24.97;98747.31;4915665;29;20033;-50
2022/03/06 09:05:26;;;;;;;15.07;12.30;;;;;;;16.07;23.97;98748.44;4913638;29;20032;-49
2022/03/06 09:07:51;;;;;;;14.02;11.70;;;;;;;16.64;23.87;98759.06;4915618;29;20032;-49
2022/03/06 09:10:17;;;;;;;14.55;12.60;;;;;;;16.99;23.25;98755.44;4915565;29;20028;-50
2022/03/06 09:12:43;;;;;;;13.20;11.80;;;;;;;17.76;22.74;98743.28;4915431;29;20044;-49
2022/03/06 09:15:10;;;;;;;15.02;11.40;;;;;;;18.53;21.77;98742.38;4915551;29;20040;-50
2022/03/06 09:17:36;;;;;;;16.95;12.20;;;;;;;19.19;21.27;98744.00;4914276;29;20037;-50
2022/03/06 09:20:04;;;;;;;14.13;12.30;;;;;;;19.76;20.63;98739.88;4915531;29;20521;-50
2022/03/06 09:22:30;;;;;;;15.02;12.88;;;;;;;20.15;20.41;98748.28;4915547;29;20024;-50
2022/03/06 09:24:56;;;;;;;14.63;11.73;;;;;;;20.40;19.86;98743.28;4914186;29;20025;-50
2022/03/06 09:27:21;;;;;;;12.82;11.25;;;;;;;20.46;19.61;98747.56;4915499;29;20024;-49
2022/03/06 09:29:47;;;;;;;15.32;13.75;;;;;;;20.75;18.97;98748.72;4914073;29;20119;-50
2022/03/06 09:32:13;;;;;;;14.27;12.77;;;;;;;20.26;19.56;98745.63;4915435;29;20028;-50
2022/03/06 09:34:39;;;;;;;15.43;11.85;;;;;;;20.69;19.23;98749.78;4915428;29;20020;-50
2022/03/06 09:37:04;;;;;;;14.98;12.45;;;;;;;21.24;19.13;98754.59;4914019;29;20032;-50
2022/03/06 09:39:30;;;;;;;14.60;11.88;;;;;;;21.71;18.61;98743.56;4915395;29;20021;-50
2022/03/06 09:41:56;;;;;;;13.75;12.15;;;;;;;21.65;18.13;98741.19;4915357;29;20028;-50
2022/03/06 09:44:24;;;;;;;14.00;12.30;;;;;;;20.99;18.82;98740.19;4915347;29;20024;-50
2022/03/06 09:46:52;;;;;;;14.50;11.82;;;;;;;21.38;18.42;98741.50;4915334;29;20024;-50
2022/03/06 09:49:18;;;;;;;15.98;12.80;;;;;;;21.91;18.30;98744.56;4914060;29;20034;-49
2022/03/06 09:51:45;;;;;;;17.95;12.82;;;;;;;22.29;17.36;98736.94;4913935;29;20024;-50
2022/03/06 09:54:12;;;;;;;15.50;12.40;;;;;;;22.12;17.30;98739.94;4915280;29;20487;-50
2022/03/06 09:56:39;;;;;;;14.93;13.43;;;;;;;22.10;17.44;98748.22;4913910;29;20391;-49
2022/03/06 09:59:06;;;;;;;16.90;13.48;;;;;;;21.95;17.63;98740.28;4915218;29;20491;-50
2022/03/06 10:01:32;;;;;;;17.23;12.90;;;;;;;21.42;17.69;98751.34;4915209;29;20028;-51
2022/03/06 10:03:58;;;;;;;18.63;12.32;;;;;;;21.15;18.07;98751.66;4915162;29;20028;-50
2022/03/06 10:06:23;;;;;;;12.30;11.02;;;;;;;21.36;17.94;98757.75;4915110;29;20024;-51
2022/03/06 10:09:04;;;;;;;14.70;12.50;;;;;;;21.30;18.20;98753.50;4915124;29;20017;-50
2022/03/06 10:11:31;;;;;;;15.98;12.35;;;;;;;21.35;17.67;98750.84;4913499;29;20053;-51
2022/03/06 10:13:57;;;;;;;13.32;11.93;;;;;;;21.50;17.57;98753.50;4913774;29;20534;-49
2022/03/06 10:16:23;;;;;;;15.82;12.75;;;;;;;21.62;17.46;98755.88;4916140;29;20032;-51
2022/03/06 10:18:51;;;;;;;15.15;12.88;;;;;;;21.74;17.61;98763.59;4917105;29;20036;-51
2022/03/06 10:21:32;;;;;;;16.80;12.88;;;;;;;21.77;17.64;98754.22;4918358;29;20039;-50
2022/03/06 10:24:01;;;;;;;19.25;14.02;;;;;;;21.66;17.67;98750.81;4917110;29;20141;-50
2022/03/06 10:26:32;;;;;;;15.30;12.48;;;;;;;22.00;17.36;98752.84;4917010;29;20021;-51
2022/03/06 10:29:01;;;;;;;16.48;12.68;;;;;;;22.31;16.92;98746.28;4918316;29;20083;-50
2022/03/06 10:31:30;;;;;;;14.32;12.68;;;;;;;23.05;16.61;98757.03;4916844;29;20375;-50
2022/03/06 10:33:57;;;;;;;14.95;13.38;;;;;;;23.39;16.01;98750.06;4916849;29;20032;-50
2022/03/06 10:36:44;;;;;;;15.65;13.13;;;;;;;23.31;16.55;98748.78;4918126;29;20035;-50
2022/03/06 10:39:11;;;;;;;14.18;12.73;;;;;;;23.69;16.18;98741.69;4916896;29;20035;-51
2022/03/06 10:41:44;;;;;;;19.10;13.63;;;;;;;23.82;15.93;98742.91;4918082;29;20091;-50
2022/03/06 10:44:11;;;;;;;15.25;13.18;;;;;;;24.28;15.34;98738.88;4918055;29;20040;-50
2022/03/06 10:46:38;;;;;;;15.23;13.20;;;;;;;24.31;15.29;98735.63;4917967;29;20476;-51
2022/03/06 10:49:12;;;;;;;15.30;13.70;;;;;;;24.58;15.21;98744.91;4917975;29;20035;-51
2022/03/06 10:51:44;;;;;;;14.30;12.90;;;;;;;24.22;15.43;98745.38;4917831;29;20036;-50
2022/03/06 10:54:10;;;;;;;14.77;13.27;;;;;;;24.48;14.96;98737.78;4916508;29;20028;-50
2022/03/06 10:56:36;;;;;;;14.57;13.18;;;;;;;24.79;14.93;98738.16;4917778;29;20021;-50
2022/03/06 10:59:05;;;;;;;15.20;13.60;;;;;;;24.98;14.60;98740.00;4917781;29;20039;-50
2022/03/06 11:01:31;;;;;;;14.32;12.93;;;;;;;25.11;14.80;98736.53;4917648;29;20048;-51
2022/03/06 11:04:02;;;;;;;14.88;13.40;;;;;;;25.37;14.66;98736.91;4916357;29;20064;-51
2022/03/06 11:06:29;;;;;;;15.65;13.27;;;;;;;25.27;14.34;98734.44;4916390;29;20499;-51
2022/03/06 11:08:56;;;;;;;15.43;13.38;;;;;;;25.05;14.44;98730.50;4917557;29;20055;-51
2022/03/06 11:11:22;;;;;;;15.05;13.60;;;;;;;24.80;14.74;98731.69;4915895;29;20056;-50
2022/03/06 11:13:48;;;;;;;17.08;12.80;;;;;;;24.38;14.60;98729.88;4917552;29;20035;-50
2022/03/06 11:16:15;;;;;;;14.75;13.27;;;;;;;24.43;14.69;98730.63;4917417;29;20021;-50
2022/03/06 11:18:41;;;;;;;16.17;13.77;;;;;;;24.32;14.63;98732.63;4917370;29;20043;-50
2022/03/06 11:21:07;;;;;;;14.63;13.07;;;;;;;23.93;14.80;98730.22;4916017;29;20414;-50